sensor_id;sensor_type;location;lat;lon;timestamp;temperature;humidity
27848;DHT22;15212;48.830;8.730;2023-06-24T00:00:57;15.90;99.90
27848;DHT22;15212;48.830;8.730;2023-06-24T00:03:26;15.90;99.90
27848;DHT22;15212;48.830;8.730;2023-06-24T00:05:54;15.90;99.90
27848;DHT22;15212;48.830;8.730;2023-06-24T00:08:23;15.90;99.90
27848;DHT22;15212;48.830;8.730;2023-06-24T00:10:53;15.90;99.90
27848;DHT22;15212;48.830;8.730;2023-06-24T00:13:21;15.80;99.90
27848;DHT22;15212;48.830;8.730;2023-06-24T00:15:50;15.70;99.90
27848;DHT22;15212;48.830;8.730;2023-06-24T00:18:18;15.60;99.90
27848;DHT22;15212;48.830;8.730;2023-06-24T00:20:47;15.50;99.90
27848;DHT22;15212;48.830;8.730;2023-06-24T00:23:19;15.40;99.90
27848;DHT22;15212;48.830;8.730;2023-06-24T00:25:54;15.40;99.90
27848;DHT22;15212;48.830;8.730;2023-06-24T00:28:23;15.20;99.90
27848;DHT22;15212;48.830;8.730;2023-06-24T00:30:52;15.20;99.90
27848;DHT22;15212;48.830;8.730;2023-06-24T00:33:20;15.10;99.90
27848;DHT22;15212;48.830;8.730;2023-06-24T00:35:49;15.00;99.90
27848;DHT22;15212;48.830;8.730;2023-06-24T00:38:17;14.90;99.90
27848;DHT22;15212;48.830;8.730;2023-06-24T00:40:46;14.80;99.90
27848;DHT22;15212;48.830;8.730;2023-06-24T00:43:14;14.80;99.90
27848;DHT22;15212;48.830;8.730;2023-06-24T00:45:42;14.80;99.90
27848;DHT22;15212;48.830;8.730;2023-06-24T00:48:12;14.80;99.90
27848;DHT22;15212;48.830;8.730;2023-06-24T00:50:41;14.80;99.90
27848;DHT22;15212;48.830;8.730;2023-06-24T00:53:11;14.80;99.90
27848;DHT22;15212;48.830;8.730;2023-06-24T00:55:39;14.70;99.90
27848;DHT22;15212;48.830;8.730;2023-06-24T00:58:08;14.60;99.90
27848;DHT22;15212;48.830;8.730;2023-06-24T01:00:36;14.60;99.90
27848;DHT22;15212;48.830;8.730;2023-06-24T01:03:05;14.60;99.90
27848;DHT22;15212;48.830;8.730;2023-06-24T01:05:35;14.60;99.90
27848;DHT22;15212;48.830;8.730;2023-06-24T01:08:03;14.70;99.90
27848;DHT22;15212;48.830;8.730;2023-06-24T01:10:32;14.70;99.90
27848;DHT22;15212;48.830;8.730;2023-06-24T01:13:00;14.80;99.90
27848;DHT22;15212;48.830;8.730;2023-06-24T01:15:29;14.90;99.90
27848;DHT22;15212;48.830;8.730;2023-06-24T01:18:10;15.00;99.90
27848;DHT22;15212;48.830;8.730;2023-06-24T01:20:54;15.00;99.90
27848;DHT22;15212;48.830;8.730;2023-06-24T01:23:44;15.10;99.90
27848;DHT22;15212;48.830;8.730;2023-06-24T01:32:15;15.40;99.90
27848;DHT22;15212;48.830;8.730;2023-06-24T01:35:06;15.40;99.90
27848;DHT22;15212;48.830;8.730;2023-06-24T01:37:42;15.50;99.90
27848;DHT22;15212;48.830;8.730;2023-06-24T01:40:31;15.50;99.90
27848;DHT22;15212;48.830;8.730;2023-06-24T01:42:59;15.50;99.90
27848;DHT22;15212;48.830;8.730;2023-06-24T01:45:35;15.50;99.90
27848;DHT22;15212;48.830;8.730;2023-06-24T01:48:12;15.50;99.90
27848;DHT22;15212;48.830;8.730;2023-06-24T01:50:44;15.50;99.90
27848;DHT22;15212;48.830;8.730;2023-06-24T01:53:14;15.50;99.90
27848;DHT22;15212;48.830;8.730;2023-06-24T01:55:46;15.40;99.90
27848;DHT22;15212;48.830;8.730;2023-06-24T01:58:16;15.40;99.90
27848;DHT22;15212;48.830;8.730;2023-06-24T02:00:45;15.40;99.90
27848;DHT22;15212;48.830;8.730;2023-06-24T02:03:15;15.40;99.90
27848;DHT22;15212;48.830;8.730;2023-06-24T02:05:46;15.50;99.90
27848;DHT22;15212;48.830;8.730;2023-06-24T02:08:15;15.50;99.90
27848;DHT22;15212;48.830;8.730;2023-06-24T02:10:45;15.50;99.90
27848;DHT22;15212;48.830;8.730;2023-06-24T02:13:15;15.50;99.90
27848;DHT22;15212;48.830;8.730;2023-06-24T02:15:46;15.50;99.90
27848;DHT22;15212;48.830;8.730;2023-06-24T02:18:15;15.50;99.90
27848;DHT22;15212;48.830;8.730;2023-06-24T02:20:45;15.50;99.90
27848;DHT22;15212;48.830;8.730;2023-06-24T02:23:14;15.50;99.90
27848;DHT22;15212;48.830;8.730;2023-06-24T02:25:42;15.50;99.90
27848;DHT22;15212;48.830;8.730;2023-06-24T02:28:12;15.50;99.90
27848;DHT22;15212;48.830;8.730;2023-06-24T02:30:41;15.40;99.90
27848;DHT22;15212;48.830;8.730;2023-06-24T02:33:10;15.30;99.90
27848;DHT22;15212;48.830;8.730;2023-06-24T02:35:39;15.20;99.90
27848;DHT22;15212;48.830;8.730;2023-06-24T02:38:08;15.20;99.90
27848;DHT22;15212;48.830;8.730;2023-06-24T02:40:37;15.20;99.90
27848;DHT22;15212;48.830;8.730;2023-06-24T02:43:05;15.10;99.90
27848;DHT22;15212;48.830;8.730;2023-06-24T02:45:34;15.10;99.90
27848;DHT22;15212;48.830;8.730;2023-06-24T02:48:03;15.00;99.90
27848;DHT22;15212;48.830;8.730;2023-06-24T02:50:33;14.90;99.90
27848;DHT22;15212;48.830;8.730;2023-06-24T02:53:02;14.90;99.90
27848;DHT22;15212;48.830;8.730;2023-06-24T02:55:32;14.90;99.90
27848;DHT22;15212;48.830;8.730;2023-06-24T02:58:03;14.90;99.90
27848;DHT22;15212;48.830;8.730;2023-06-24T03:00:34;14.90;99.90
27848;DHT22;15212;48.830;8.730;2023-06-24T03:03:05;14.80;99.90
27848;DHT22;15212;48.830;8.730;2023-06-24T03:05:35;14.70;99.90
27848;DHT22;15212;48.830;8.730;2023-06-24T03:08:04;14.70;99.90
27848;DHT22;15212;48.830;8.730;2023-06-24T03:10:33;14.60;99.90
27848;DHT22;15212;48.830;8.730;2023-06-24T03:13:04;14.50;99.90
27848;DHT22;15212;48.830;8.730;2023-06-24T03:15:32;14.40;99.90
27848;DHT22;15212;48.830;8.730;2023-06-24T03:18:00;14.30;99.90
27848;DHT22;15212;48.830;8.730;2023-06-24T03:20:29;14.20;99.90
27848;DHT22;15212;48.830;8.730;2023-06-24T03:22:59;14.20;99.90
27848;DHT22;15212;48.830;8.730;2023-06-24T03:25:27;14.10;99.90
27848;DHT22;15212;48.830;8.730;2023-06-24T03:27:56;14.10;99.90
27848;DHT22;15212;48.830;8.730;2023-06-24T03:30:25;14.00;99.90
27848;DHT22;15212;48.830;8.730;2023-06-24T03:32:53;13.90;99.90
27848;DHT22;15212;48.830;8.730;2023-06-24T03:35:22;13.90;99.90
27848;DHT22;15212;48.830;8.730;2023-06-24T03:37:50;13.80;99.90
27848;DHT22;15212;48.830;8.730;2023-06-24T03:40:19;13.70;99.90
27848;DHT22;15212;48.830;8.730;2023-06-24T03:42:48;13.70;99.90
27848;DHT22;15212;48.830;8.730;2023-06-24T03:45:16;13.70;99.90
27848;DHT22;15212;48.830;8.730;2023-06-24T03:47:45;13.70;99.90
27848;DHT22;15212;48.830;8.730;2023-06-24T03:50:13;13.70;99.90
27848;DHT22;15212;48.830;8.730;2023-06-24T03:52:41;13.70;99.90
27848;DHT22;15212;48.830;8.730;2023-06-24T03:55:11;13.70;99.90
27848;DHT22;15212;48.830;8.730;2023-06-24T03:57:40;13.70;99.90
27848;DHT22;15212;48.830;8.730;2023-06-24T04:00:09;13.70;99.90
27848;DHT22;15212;48.830;8.730;2023-06-24T04:02:42;13.80;99.90
27848;DHT22;15212;48.830;8.730;2023-06-24T04:05:11;13.90;99.90
27848;DHT22;15212;48.830;8.730;2023-06-24T04:07:40;14.00;99.90
27848;DHT22;15212;48.830;8.730;2023-06-24T04:10:10;14.00;99.90
27848;DHT22;15212;48.830;8.730;2023-06-24T04:12:39;14.10;99.90
27848;DHT22;15212;48.830;8.730;2023-06-24T04:15:08;14.20;99.90
27848;DHT22;15212;48.830;8.730;2023-06-24T04:17:36;14.40;99.90
27848;DHT22;15212;48.830;8.730;2023-06-24T04:20:05;14.50;99.90
27848;DHT22;15212;48.830;8.730;2023-06-24T04:22:36;14.40;99.90
27848;DHT22;15212;48.830;8.730;2023-06-24T04:25:07;14.40;99.90
27848;DHT22;15212;48.830;8.730;2023-06-24T04:27:36;14.40;99.90
27848;DHT22;15212;48.830;8.730;2023-06-24T04:30:05;14.30;99.90
27848;DHT22;15212;48.830;8.730;2023-06-24T04:32:33;14.30;99.90
27848;DHT22;15212;48.830;8.730;2023-06-24T04:35:02;14.30;99.90
27848;DHT22;15212;48.830;8.730;2023-06-24T04:37:31;14.30;99.90
27848;DHT22;15212;48.830;8.730;2023-06-24T04:39:59;14.40;99.90
27848;DHT22;15212;48.830;8.730;2023-06-24T04:42:27;14.40;99.90
27848;DHT22;15212;48.830;8.730;2023-06-24T04:44:56;14.40;99.90
27848;DHT22;15212;48.830;8.730;2023-06-24T04:47:24;14.40;99.90
27848;DHT22;15212;48.830;8.730;2023-06-24T04:49:53;14.50;99.90
27848;DHT22;15212;48.830;8.730;2023-06-24T04:52:23;14.50;99.90
27848;DHT22;15212;48.830;8.730;2023-06-24T04:54:51;14.60;99.90
27848;DHT22;15212;48.830;8.730;2023-06-24T04:57:27;14.60;99.90
27848;DHT22;15212;48.830;8.730;2023-06-24T04:59:57;14.70;99.90
27848;DHT22;15212;48.830;8.730;2023-06-24T05:02:26;14.70;99.90
27848;DHT22;15212;48.830;8.730;2023-06-24T05:04:54;14.80;99.90
27848;DHT22;15212;48.830;8.730;2023-06-24T05:07:23;14.90;99.90
27848;DHT22;15212;48.830;8.730;2023-06-24T05:09:51;14.90;99.90
27848;DHT22;15212;48.830;8.730;2023-06-24T05:12:20;15.10;99.90
27848;DHT22;15212;48.830;8.730;2023-06-24T05:14:52;15.30;99.90
27848;DHT22;15212;48.830;8.730;2023-06-24T05:17:20;15.40;99.90
27848;DHT22;15212;48.830;8.730;2023-06-24T05:19:48;15.60;99.90
27848;DHT22;15212;48.830;8.730;2023-06-24T05:22:17;15.80;99.90
27848;DHT22;15212;48.830;8.730;2023-06-24T05:24:45;16.00;99.90
27848;DHT22;15212;48.830;8.730;2023-06-24T05:27:14;16.10;99.90
27848;DHT22;15212;48.830;8.730;2023-06-24T05:29:44;16.30;99.90
27848;DHT22;15212;48.830;8.730;2023-06-24T05:32:12;16.40;99.90
27848;DHT22;15212;48.830;8.730;2023-06-24T05:34:40;16.60;99.90
27848;DHT22;15212;48.830;8.730;2023-06-24T05:37:09;16.70;99.90
27848;DHT22;15212;48.830;8.730;2023-06-24T05:39:37;16.90;99.90
27848;DHT22;15212;48.830;8.730;2023-06-24T05:42:06;17.10;99.90
27848;DHT22;15212;48.830;8.730;2023-06-24T05:44:34;17.30;99.90
27848;DHT22;15212;48.830;8.730;2023-06-24T05:47:03;17.50;99.90
27848;DHT22;15212;48.830;8.730;2023-06-24T05:49:31;17.70;99.90
27848;DHT22;15212;48.830;8.730;2023-06-24T05:52:02;17.90;99.90
27848;DHT22;15212;48.830;8.730;2023-06-24T05:54:30;18.20;99.90
27848;DHT22;15212;48.830;8.730;2023-06-24T05:56:58;18.50;99.90
27848;DHT22;15212;48.830;8.730;2023-06-24T05:59:26;18.90;99.90
27848;DHT22;15212;48.830;8.730;2023-06-24T06:01:55;19.50;99.90
27848;DHT22;15212;48.830;8.730;2023-06-24T06:04:23;20.20;99.90
27848;DHT22;15212;48.830;8.730;2023-06-24T06:06:51;21.00;99.90
27848;DHT22;15212;48.830;8.730;2023-06-24T06:09:21;22.20;99.90
27848;DHT22;15212;48.830;8.730;2023-06-24T06:11:49;23.60;99.90
27848;DHT22;15212;48.830;8.730;2023-06-24T06:14:18;25.10;99.90
27848;DHT22;15212;48.830;8.730;2023-06-24T06:16:46;26.40;99.90
27848;DHT22;15212;48.830;8.730;2023-06-24T06:19:15;27.60;99.90
27848;DHT22;15212;48.830;8.730;2023-06-24T06:21:43;28.40;99.90
27848;DHT22;15212;48.830;8.730;2023-06-24T06:24:12;29.00;99.90
27848;DHT22;15212;48.830;8.730;2023-06-24T06:26:42;29.60;99.10
27848;DHT22;15212;48.830;8.730;2023-06-24T06:29:11;29.90;98.70
27848;DHT22;15212;48.830;8.730;2023-06-24T06:31:39;30.50;96.70
27848;DHT22;15212;48.830;8.730;2023-06-24T06:34:08;30.80;96.10
27848;DHT22;15212;48.830;8.730;2023-06-24T06:36:36;31.00;95.20
27848;DHT22;15212;48.830;8.730;2023-06-24T06:39:04;31.00;93.60
27848;DHT22;15212;48.830;8.730;2023-06-24T06:41:33;31.00;92.00
27848;DHT22;15212;48.830;8.730;2023-06-24T06:44:01;30.80;91.90
27848;DHT22;15212;48.830;8.730;2023-06-24T06:46:30;30.80;92.00
27848;DHT22;15212;48.830;8.730;2023-06-24T06:48:58;30.70;91.70
27848;DHT22;15212;48.830;8.730;2023-06-24T06:51:26;30.80;91.40
27848;DHT22;15212;48.830;8.730;2023-06-24T06:53:55;30.60;91.50
27848;DHT22;15212;48.830;8.730;2023-06-24T06:56:24;30.80;90.80
27848;DHT22;15212;48.830;8.730;2023-06-24T06:58:53;31.20;90.40
27848;DHT22;15212;48.830;8.730;2023-06-24T07:01:21;31.20;90.40
27848;DHT22;15212;48.830;8.730;2023-06-24T07:03:50;31.10;90.70
27848;DHT22;15212;48.830;8.730;2023-06-24T07:06:19;31.10;90.00
27848;DHT22;15212;48.830;8.730;2023-06-24T07:08:47;31.00;90.00
27848;DHT22;15212;48.830;8.730;2023-06-24T07:11:16;31.00;90.10
27848;DHT22;15212;48.830;8.730;2023-06-24T07:13:44;30.90;91.10
27848;DHT22;15212;48.830;8.730;2023-06-24T07:16:13;30.70;90.10
27848;DHT22;15212;48.830;8.730;2023-06-24T07:18:41;30.70;89.00
27848;DHT22;15212;48.830;8.730;2023-06-24T07:21:09;30.30;90.00
27848;DHT22;15212;48.830;8.730;2023-06-24T07:23:38;30.10;90.40
27848;DHT22;15212;48.830;8.730;2023-06-24T07:26:06;30.30;90.00
27848;DHT22;15212;48.830;8.730;2023-06-24T07:28:35;30.30;90.60
27848;DHT22;15212;48.830;8.730;2023-06-24T07:31:03;30.30;90.20
27848;DHT22;15212;48.830;8.730;2023-06-24T07:33:32;30.20;91.20
27848;DHT22;15212;48.830;8.730;2023-06-24T07:36:02;30.20;87.80
27848;DHT22;15212;48.830;8.730;2023-06-24T07:38:30;29.90;88.20
27848;DHT22;15212;48.830;8.730;2023-06-24T07:40:59;29.90;88.90
27848;DHT22;15212;48.830;8.730;2023-06-24T07:43:27;29.60;89.70
27848;DHT22;15212;48.830;8.730;2023-06-24T07:45:56;29.50;90.20
27848;DHT22;15212;48.830;8.730;2023-06-24T07:48:24;29.50;90.20
27848;DHT22;15212;48.830;8.730;2023-06-24T07:50:52;29.40;90.40
27848;DHT22;15212;48.830;8.730;2023-06-24T07:53:21;29.50;89.20
27848;DHT22;15212;48.830;8.730;2023-06-24T07:55:49;29.20;90.30
27848;DHT22;15212;48.830;8.730;2023-06-24T07:58:18;29.10;88.00
27848;DHT22;15212;48.830;8.730;2023-06-24T08:00:46;29.10;91.20
27848;DHT22;15212;48.830;8.730;2023-06-24T08:03:14;29.10;89.80
27848;DHT22;15212;48.830;8.730;2023-06-24T08:05:43;28.70;90.90
27848;DHT22;15212;48.830;8.730;2023-06-24T08:08:11;28.40;90.30
27848;DHT22;15212;48.830;8.730;2023-06-24T08:10:40;28.10;90.70
27848;DHT22;15212;48.830;8.730;2023-06-24T08:13:08;27.60;90.90
27848;DHT22;15212;48.830;8.730;2023-06-24T08:15:36;27.10;92.30
27848;DHT22;15212;48.830;8.730;2023-06-24T08:18:05;26.80;91.50
27848;DHT22;15212;48.830;8.730;2023-06-24T08:20:33;26.50;91.60
27848;DHT22;15212;48.830;8.730;2023-06-24T08:23:02;26.20;90.80
27848;DHT22;15212;48.830;8.730;2023-06-24T08:25:30;25.90;91.30
27848;DHT22;15212;48.830;8.730;2023-06-24T08:27:58;25.80;91.40
27848;DHT22;15212;48.830;8.730;2023-06-24T08:30:27;25.60;90.20
27848;DHT22;15212;48.830;8.730;2023-06-24T08:32:56;25.50;91.70
27848;DHT22;15212;48.830;8.730;2023-06-24T08:35:24;25.40;91.30
27848;DHT22;15212;48.830;8.730;2023-06-24T08:37:52;25.20;90.80
27848;DHT22;15212;48.830;8.730;2023-06-24T08:40:21;25.10;92.10
27848;DHT22;15212;48.830;8.730;2023-06-24T08:42:49;25.00;93.00
27848;DHT22;15212;48.830;8.730;2023-06-24T08:45:18;25.00;92.60
27848;DHT22;15212;48.830;8.730;2023-06-24T08:47:48;25.00;92.60
27848;DHT22;15212;48.830;8.730;2023-06-24T08:50:17;25.00;93.70
27848;DHT22;15212;48.830;8.730;2023-06-24T08:52:50;25.10;90.30
27848;DHT22;15212;48.830;8.730;2023-06-24T08:55:21;25.30;89.80
27848;DHT22;15212;48.830;8.730;2023-06-24T08:57:50;25.40;90.60
27848;DHT22;15212;48.830;8.730;2023-06-24T09:00:19;25.60;92.40
27848;DHT22;15212;48.830;8.730;2023-06-24T09:02:48;25.80;92.00
27848;DHT22;15212;48.830;8.730;2023-06-24T09:05:16;25.80;91.10
27848;DHT22;15212;48.830;8.730;2023-06-24T09:07:44;25.90;90.00
27848;DHT22;15212;48.830;8.730;2023-06-24T09:10:30;25.80;90.00
27848;DHT22;15212;48.830;8.730;2023-06-24T09:13:05;25.90;87.70
27848;DHT22;15212;48.830;8.730;2023-06-24T09:15:35;26.10;87.20
27848;DHT22;15212;48.830;8.730;2023-06-24T09:18:05;26.10;90.00
27848;DHT22;15212;48.830;8.730;2023-06-24T09:20:33;26.20;88.80
27848;DHT22;15212;48.830;8.730;2023-06-24T09:23:04;26.20;89.60
27848;DHT22;15212;48.830;8.730;2023-06-24T09:25:32;26.20;91.20
27848;DHT22;15212;48.830;8.730;2023-06-24T09:28:01;26.10;89.50
27848;DHT22;15212;48.830;8.730;2023-06-24T09:30:30;26.10;91.10
27848;DHT22;15212;48.830;8.730;2023-06-24T09:32:58;25.90;91.30
27848;DHT22;15212;48.830;8.730;2023-06-24T09:35:26;25.70;90.00
27848;DHT22;15212;48.830;8.730;2023-06-24T09:37:58;25.80;92.30
27848;DHT22;15212;48.830;8.730;2023-06-24T09:40:26;25.70;91.40
27848;DHT22;15212;48.830;8.730;2023-06-24T09:42:58;25.80;92.00
27848;DHT22;15212;48.830;8.730;2023-06-24T09:45:30;25.90;91.50
27848;DHT22;15212;48.830;8.730;2023-06-24T09:47:58;26.00;91.50
27848;DHT22;15212;48.830;8.730;2023-06-24T09:50:27;26.00;90.50
27848;DHT22;15212;48.830;8.730;2023-06-24T09:52:57;26.00;90.40
27848;DHT22;15212;48.830;8.730;2023-06-24T09:55:28;26.10;91.10
27848;DHT22;15212;48.830;8.730;2023-06-24T09:57:56;26.10;90.50
27848;DHT22;15212;48.830;8.730;2023-06-24T10:00:25;26.10;86.30
27848;DHT22;15212;48.830;8.730;2023-06-24T10:02:54;26.10;84.40
27848;DHT22;15212;48.830;8.730;2023-06-24T10:05:23;26.20;87.60
27848;DHT22;15212;48.830;8.730;2023-06-24T10:07:51;26.30;87.70
27848;DHT22;15212;48.830;8.730;2023-06-24T10:10:19;26.30;85.90
27848;DHT22;15212;48.830;8.730;2023-06-24T10:12:48;26.40;86.80
27848;DHT22;15212;48.830;8.730;2023-06-24T10:15:16;26.40;84.70
27848;DHT22;15212;48.830;8.730;2023-06-24T10:17:45;26.30;83.70
27848;DHT22;15212;48.830;8.730;2023-06-24T10:20:14;26.20;83.20
27848;DHT22;15212;48.830;8.730;2023-06-24T10:22:46;26.20;86.80
27848;DHT22;15212;48.830;8.730;2023-06-24T10:25:15;26.30;86.00
27848;DHT22;15212;48.830;8.730;2023-06-24T10:27:45;26.40;86.00
27848;DHT22;15212;48.830;8.730;2023-06-24T10:30:19;26.60;89.70
27848;DHT22;15212;48.830;8.730;2023-06-24T10:32:53;26.70;88.60
27848;DHT22;15212;48.830;8.730;2023-06-24T10:35:23;26.60;85.30
27848;DHT22;15212;48.830;8.730;2023-06-24T10:37:58;26.70;84.70
27848;DHT22;15212;48.830;8.730;2023-06-24T10:40:41;26.80;82.10
27848;DHT22;15212;48.830;8.730;2023-06-24T10:43:27;26.90;83.10
27848;DHT22;15212;48.830;8.730;2023-06-24T10:45:57;26.90;82.70
27848;DHT22;15212;48.830;8.730;2023-06-24T10:48:26;27.00;82.30
27848;DHT22;15212;48.830;8.730;2023-06-24T10:50:54;27.00;85.70
27848;DHT22;15212;48.830;8.730;2023-06-24T10:53:22;26.80;84.90
27848;DHT22;15212;48.830;8.730;2023-06-24T10:55:51;26.70;83.10
27848;DHT22;15212;48.830;8.730;2023-06-24T10:58:19;26.50;81.80
27848;DHT22;15212;48.830;8.730;2023-06-24T11:00:48;26.40;83.00
27848;DHT22;15212;48.830;8.730;2023-06-24T11:03:17;26.30;82.50
27848;DHT22;15212;48.830;8.730;2023-06-24T11:05:48;26.40;82.60
27848;DHT22;15212;48.830;8.730;2023-06-24T11:08:16;26.50;85.80
27848;DHT22;15212;48.830;8.730;2023-06-24T11:10:48;26.60;82.40
27848;DHT22;15212;48.830;8.730;2023-06-24T11:13:20;26.70;83.80
27848;DHT22;15212;48.830;8.730;2023-06-24T11:15:48;26.80;85.00
27848;DHT22;15212;48.830;8.730;2023-06-24T11:18:17;26.80;84.60
27848;DHT22;15212;48.830;8.730;2023-06-24T11:20:45;26.80;81.10
27848;DHT22;15212;48.830;8.730;2023-06-24T11:23:13;26.80;82.40
27848;DHT22;15212;48.830;8.730;2023-06-24T11:25:43;26.80;83.60
27848;DHT22;15212;48.830;8.730;2023-06-24T11:28:16;26.80;81.50
27848;DHT22;15212;48.830;8.730;2023-06-24T11:30:45;26.80;81.60
27848;DHT22;15212;48.830;8.730;2023-06-24T11:33:13;26.70;83.00
27848;DHT22;15212;48.830;8.730;2023-06-24T11:35:45;26.70;80.90
27848;DHT22;15212;48.830;8.730;2023-06-24T11:38:13;26.50;81.70
27848;DHT22;15212;48.830;8.730;2023-06-24T11:40:42;26.60;81.30
27848;DHT22;15212;48.830;8.730;2023-06-24T11:43:10;26.60;82.90
27848;DHT22;15212;48.830;8.730;2023-06-24T11:45:40;26.70;78.00
27848;DHT22;15212;48.830;8.730;2023-06-24T11:48:08;26.60;77.30
27848;DHT22;15212;48.830;8.730;2023-06-24T11:50:37;26.50;81.90
27848;DHT22;15212;48.830;8.730;2023-06-24T11:53:05;26.50;78.90
27848;DHT22;15212;48.830;8.730;2023-06-24T11:55:33;26.60;79.70
27848;DHT22;15212;48.830;8.730;2023-06-24T11:58:03;26.50;79.00
27848;DHT22;15212;48.830;8.730;2023-06-24T12:00:39;26.40;79.10
27848;DHT22;15212;48.830;8.730;2023-06-24T12:03:12;26.30;80.20
27848;DHT22;15212;48.830;8.730;2023-06-24T12:05:41;26.30;80.00
27848;DHT22;15212;48.830;8.730;2023-06-24T12:08:11;26.30;78.90
27848;DHT22;15212;48.830;8.730;2023-06-24T12:10:43;26.40;81.10
27848;DHT22;15212;48.830;8.730;2023-06-24T12:13:12;26.50;78.50
27848;DHT22;15212;48.830;8.730;2023-06-24T12:15:41;26.60;78.90
27848;DHT22;15212;48.830;8.730;2023-06-24T12:18:10;26.70;78.50
27848;DHT22;15212;48.830;8.730;2023-06-24T12:20:40;26.80;77.60
27848;DHT22;15212;48.830;8.730;2023-06-24T12:23:10;26.80;81.50
27848;DHT22;15212;48.830;8.730;2023-06-24T12:25:38;26.70;80.20
27848;DHT22;15212;48.830;8.730;2023-06-24T12:28:06;26.70;84.00
27848;DHT22;15212;48.830;8.730;2023-06-24T12:30:35;26.70;79.60
27848;DHT22;15212;48.830;8.730;2023-06-24T12:33:03;26.70;82.00
27848;DHT22;15212;48.830;8.730;2023-06-24T12:35:33;26.70;77.60
27848;DHT22;15212;48.830;8.730;2023-06-24T12:38:01;26.70;80.00
27848;DHT22;15212;48.830;8.730;2023-06-24T12:40:30;26.80;78.10
27848;DHT22;15212;48.830;8.730;2023-06-24T12:42:58;26.80;78.80
27848;DHT22;15212;48.830;8.730;2023-06-24T12:45:27;27.00;79.70
27848;DHT22;15212;48.830;8.730;2023-06-24T12:47:55;27.00;77.90
27848;DHT22;15212;48.830;8.730;2023-06-24T12:50:23;27.00;73.50
27848;DHT22;15212;48.830;8.730;2023-06-24T12:52:52;26.90;77.30
27848;DHT22;15212;48.830;8.730;2023-06-24T12:55:20;27.00;77.70
27848;DHT22;15212;48.830;8.730;2023-06-24T12:57:49;27.10;76.70
27848;DHT22;15212;48.830;8.730;2023-06-24T13:00:19;27.20;76.50
27848;DHT22;15212;48.830;8.730;2023-06-24T13:02:48;27.30;75.30
27848;DHT22;15212;48.830;8.730;2023-06-24T13:05:17;27.30;72.60
27848;DHT22;15212;48.830;8.730;2023-06-24T13:07:46;27.40;72.10
27848;DHT22;15212;48.830;8.730;2023-06-24T13:10:14;27.40;75.20
27848;DHT22;15212;48.830;8.730;2023-06-24T13:12:42;27.30;74.70
27848;DHT22;15212;48.830;8.730;2023-06-24T13:15:11;27.20;74.20
27848;DHT22;15212;48.830;8.730;2023-06-24T13:17:40;27.10;72.70
27848;DHT22;15212;48.830;8.730;2023-06-24T13:20:08;27.10;72.70
27848;DHT22;15212;48.830;8.730;2023-06-24T13:22:37;27.20;72.40
27848;DHT22;15212;48.830;8.730;2023-06-24T13:25:06;27.00;70.30
27848;DHT22;15212;48.830;8.730;2023-06-24T13:27:34;27.00;73.40
27848;DHT22;15212;48.830;8.730;2023-06-24T13:30:03;27.00;73.80
27848;DHT22;15212;48.830;8.730;2023-06-24T13:32:32;26.90;74.40
27848;DHT22;15212;48.830;8.730;2023-06-24T13:35:00;26.90;75.20
27848;DHT22;15212;48.830;8.730;2023-06-24T13:37:28;27.10;74.00
27848;DHT22;15212;48.830;8.730;2023-06-24T13:39:57;27.20;74.30
27848;DHT22;15212;48.830;8.730;2023-06-24T13:42:25;26.90;73.80
27848;DHT22;15212;48.830;8.730;2023-06-24T13:44:53;26.80;73.40
27848;DHT22;15212;48.830;8.730;2023-06-24T13:47:22;26.80;74.40
27848;DHT22;15212;48.830;8.730;2023-06-24T13:49:50;26.90;74.20
27848;DHT22;15212;48.830;8.730;2023-06-24T13:52:19;27.00;74.90
27848;DHT22;15212;48.830;8.730;2023-06-24T13:54:47;27.10;74.00
27848;DHT22;15212;48.830;8.730;2023-06-24T13:57:16;27.00;72.60
27848;DHT22;15212;48.830;8.730;2023-06-24T13:59:45;27.00;74.50
27848;DHT22;15212;48.830;8.730;2023-06-24T14:02:13;27.00;73.00
27848;DHT22;15212;48.830;8.730;2023-06-24T14:04:42;27.10;70.30
27848;DHT22;15212;48.830;8.730;2023-06-24T14:07:11;27.10;72.30
27848;DHT22;15212;48.830;8.730;2023-06-24T14:09:39;27.20;73.20
27848;DHT22;15212;48.830;8.730;2023-06-24T14:12:08;27.20;71.20
27848;DHT22;15212;48.830;8.730;2023-06-24T14:14:37;27.20;72.00
27848;DHT22;15212;48.830;8.730;2023-06-24T14:17:06;27.10;72.00
27848;DHT22;15212;48.830;8.730;2023-06-24T14:19:39;27.10;71.40
27848;DHT22;15212;48.830;8.730;2023-06-24T14:22:08;27.20;71.70
27848;DHT22;15212;48.830;8.730;2023-06-24T14:24:36;27.30;72.40
27848;DHT22;15212;48.830;8.730;2023-06-24T14:27:06;27.40;72.60
27848;DHT22;15212;48.830;8.730;2023-06-24T14:29:34;27.40;72.00
27848;DHT22;15212;48.830;8.730;2023-06-24T14:32:03;27.20;71.80
27848;DHT22;15212;48.830;8.730;2023-06-24T14:34:32;27.10;72.70
27848;DHT22;15212;48.830;8.730;2023-06-24T14:37:00;27.00;73.20
27848;DHT22;15212;48.830;8.730;2023-06-24T14:39:28;27.00;74.40
27848;DHT22;15212;48.830;8.730;2023-06-24T14:41:57;27.00;74.70
27848;DHT22;15212;48.830;8.730;2023-06-24T14:44:25;27.00;72.10
27848;DHT22;15212;48.830;8.730;2023-06-24T14:46:54;26.80;75.40
27848;DHT22;15212;48.830;8.730;2023-06-24T14:49:22;26.70;73.80
27848;DHT22;15212;48.830;8.730;2023-06-24T14:51:51;26.60;73.30
27848;DHT22;15212;48.830;8.730;2023-06-24T14:54:20;26.60;72.40
27848;DHT22;15212;48.830;8.730;2023-06-24T14:56:49;26.70;72.90
27848;DHT22;15212;48.830;8.730;2023-06-24T14:59:17;26.80;74.30
27848;DHT22;15212;48.830;8.730;2023-06-24T15:01:46;26.80;75.30
27848;DHT22;15212;48.830;8.730;2023-06-24T15:04:14;27.00;74.70
27848;DHT22;15212;48.830;8.730;2023-06-24T15:06:43;27.00;74.20
27848;DHT22;15212;48.830;8.730;2023-06-24T15:09:12;27.00;75.20
27848;DHT22;15212;48.830;8.730;2023-06-24T15:11:40;27.00;78.50
27848;DHT22;15212;48.830;8.730;2023-06-24T15:14:08;27.00;75.40
27848;DHT22;15212;48.830;8.730;2023-06-24T15:16:37;27.00;75.50
27848;DHT22;15212;48.830;8.730;2023-06-24T15:19:05;27.00;74.50
27848;DHT22;15212;48.830;8.730;2023-06-24T15:21:34;26.80;73.70
27848;DHT22;15212;48.830;8.730;2023-06-24T15:24:02;26.80;74.10
27848;DHT22;15212;48.830;8.730;2023-06-24T15:26:31;26.80;74.20
27848;DHT22;15212;48.830;8.730;2023-06-24T15:28:59;26.80;74.20
27848;DHT22;15212;48.830;8.730;2023-06-24T15:31:28;26.90;76.40
27848;DHT22;15212;48.830;8.730;2023-06-24T15:33:56;26.90;75.40
27848;DHT22;15212;48.830;8.730;2023-06-24T15:36:24;27.00;73.10
27848;DHT22;15212;48.830;8.730;2023-06-24T15:38:55;27.00;72.20
27848;DHT22;15212;48.830;8.730;2023-06-24T15:41:24;27.10;73.60
27848;DHT22;15212;48.830;8.730;2023-06-24T15:43:52;27.20;71.60
27848;DHT22;15212;48.830;8.730;2023-06-24T15:46:20;27.20;72.10
27848;DHT22;15212;48.830;8.730;2023-06-24T15:48:49;27.10;70.70